Time;durP1;ratioP1;P1;durP2;ratioP2;P2;SDS_P1;SDS_P2;PMS_P1;PMS_P2;Temp;Humidity;BMP_temperature;BMP_pressure;BME280_temperature;BME280_humidity;BME280_pressure;Samples;Min_cycle;Max_cycle;Signal;HPM_P1;HPM_P2
2020/12/22 00:01:55;;;;;;;44.85;4.47;;;;;;;10.35;100.00;100370.97;5092302;28;20048;-61
2020/12/22 00:04:24;;;;;;;45.17;4.43;;;;;;;10.34;100.00;100372.09;5107282;28;20043;-60
2020/12/22 00:06:50;;;;;;;55.05;4.78;;;;;;;10.37;100.00;100363.13;5112874;28;20054;-61
2020/12/22 00:09:17;;;;;;;42.65;4.68;;;;;;;10.33;100.00;100362.91;5098394;28;20040;-55
2020/12/22 00:11:44;;;;;;;51.97;5.15;;;;;;;10.33;100.00;100350.94;5092609;28;20044;-59
2020/12/22 00:14:12;;;;;;;47.80;4.07;;;;;;;10.33;100.00;100354.53;5103539;28;20071;-61
2020/12/22 00:16:38;;;;;;;49.72;5.10;;;;;;;10.33;100.00;100348.97;5112258;28;20549;-59
2020/12/22 00:19:05;;;;;;;39.53;4.13;;;;;;;10.34;100.00;100338.63;5103306;28;20036;-60
2020/12/22 00:21:33;;;;;;;49.25;4.30;;;;;;;10.35;100.00;100343.06;5092364;28;20048;-60
2020/12/22 00:24:00;;;;;;;46.83;5.05;;;;;;;10.32;100.00;100343.69;5098401;28;20127;-54
2020/12/22 00:26:27;;;;;;;57.55;5.38;;;;;;;10.31;100.00;100348.44;5112778;28;20122;-54
2020/12/22 00:28:53;;;;;;;58.28;5.75;;;;;;;10.30;100.00;100354.31;5107268;28;20078;-55
2020/12/22 00:31:21;;;;;;;46.20;4.82;;;;;;;10.29;100.00;100356.28;5092141;28;20044;-54
2020/12/22 00:33:48;;;;;;;50.90;4.47;;;;;;;10.27;100.00;100357.72;5093996;28;20048;-56
2020/12/22 00:36:15;;;;;;;46.70;5.13;;;;;;;10.26;100.00;100367.22;5111441;28;20484;-54
2020/12/22 00:38:44;;;;;;;56.30;5.07;;;;;;;10.27;100.00;100360.53;5112470;28;20036;-54
2020/12/22 00:41:14;;;;;;;49.72;4.93;;;;;;;10.26;100.00;100358.88;5112012;28;20050;-54
2020/12/22 00:43:41;;;;;;;55.42;5.32;;;;;;;10.26;100.00;100361.66;5112112;28;20102;-50
2020/12/22 00:46:08;;;;;;;57.30;5.40;;;;;;;10.27;100.00;100368.88;5092645;28;20044;-49
2020/12/22 00:48:36;;;;;;;54.38;5.43;;;;;;;10.30;100.00;100363.53;5091759;28;20494;-55
2020/12/22 00:51:03;;;;;;;66.20;5.43;;;;;;;10.30;100.00;100357.13;5107904;28;20043;-51
2020/12/22 00:53:30;;;;;;;67.63;6.05;;;;;;;10.32;100.00;100361.25;5090615;28;20047;-54
2020/12/22 00:55:57;;;;;;;60.15;5.20;;;;;;;10.33;100.00;100362.09;5091671;28;20040;-54
2020/12/22 00:58:24;;;;;;;52.10;4.95;;;;;;;10.30;100.00;100345.97;5090085;28;20058;-54
2020/12/22 01:00:51;;;;;;;63.15;5.25;;;;;;;10.32;100.00;100347.31;5103422;28;20065;-50
2020/12/22 01:03:18;;;;;;;68.75;5.70;;;;;;;10.27;100.00;100339.03;5111615;28;20477;-53
2020/12/22 01:05:45;;;;;;;79.70;6.93;;;;;;;10.29;100.00;100338.72;5101228;28;20388;-54
2020/12/22 01:08:12;;;;;;;60.30;6.28;;;;;;;10.28;100.00;100342.66;5091562;28;20040;-52
2020/12/22 01:10:39;;;;;;;71.40;6.30;;;;;;;10.26;100.00;100350.50;5099050;28;20156;-53
2020/12/22 01:13:05;;;;;;;75.03;6.80;;;;;;;10.26;100.00;100350.50;5111272;28;20157;-54
2020/12/22 01:15:32;;;;;;;57.53;6.25;;;;;;;10.25;100.00;100344.09;5105483;28;20107;-50
2020/12/22 01:17:59;;;;;;;69.55;5.47;;;;;;;10.26;100.00;100350.50;5090504;28;20134;-56
2020/12/22 01:20:26;;;;;;;58.20;6.20;;;;;;;10.24;100.00;100339.66;5093958;28;20071;-55
2020/12/22 01:22:53;;;;;;;83.00;7.00;;;;;;;10.23;100.00;100339.97;5100083;28;20043;-54
2020/12/22 01:25:20;;;;;;;83.72;7.68;;;;;;;10.23;100.00;100345.53;5108974;28;20069;-53
2020/12/22 01:27:54;;;;;;;83.85;8.20;;;;;;;10.21;100.00;100339.44;5107892;28;20047;-59
2020/12/22 01:30:21;;;;;;;81.55;6.90;;;;;;;10.25;100.00;100343.28;5111420;28;20487;-52
2020/12/22 01:32:49;;;;;;;69.03;6.35;;;;;;;10.24;100.00;100359.19;5090615;28;20042;-55
2020/12/22 01:35:17;;;;;;;59.83;5.60;;;;;;;10.26;100.00;100348.53;5091221;28;20418;-58
2020/12/22 01:37:44;;;;;;;71.93;6.40;;;;;;;10.26;100.00;100340.16;5108590;28;20047;-54
2020/12/22 01:40:12;;;;;;;60.83;5.03;;;;;;;10.27;100.00;100346.56;5110990;28;20139;-58
2020/12/22 01:42:42;;;;;;;42.50;4.30;;;;;;;10.29;100.00;100336.78;5095061;28;20075;-56
2020/12/22 01:45:09;;;;;;;57.03;5.78;;;;;;;10.30;100.00;100321.69;5091912;28;20134;-57
2020/12/22 01:47:36;;;;;;;49.33;5.10;;;;;;;10.33;100.00;100331.41;5110320;28;20136;-58
2020/12/22 01:50:03;;;;;;;55.70;5.03;;;;;;;10.32;100.00;100352.06;5111324;28;20048;-57
2020/12/22 01:52:30;;;;;;;50.13;5.10;;;;;;;10.31;100.00;100342.03;5099247;28;20040;-58
2020/12/22 01:54:56;;;;;;;53.17;4.53;;;;;;;10.33;100.00;100350.94;5090184;28;20062;-56
2020/12/22 01:57:24;;;;;;;46.17;4.47;;;;;;;10.30;100.00;100360.72;5099942;28;20078;-55
2020/12/22 01:59:51;;;;;;;45.15;5.15;;;;;;;10.32;100.00;100366.81;5111322;28;20078;-55
2020/12/22 02:02:18;;;;;;;54.92;4.95;;;;;;;10.33;100.00;100357.31;5103236;28;20044;-57
2020/12/22 02:04:44;;;;;;;52.75;4.65;;;;;;;10.32;100.00;100350.09;5090862;28;20062;-58
2020/12/22 02:07:12;;;;;;;42.28;3.67;;;;;;;10.31;100.00;100365.19;5094733;28;20555;-56
2020/12/22 02:09:40;;;;;;;36.53;3.90;;;;;;;10.33;100.00;100365.69;5110869;28;20050;-58
2020/12/22 02:12:07;;;;;;;45.17;4.40;;;;;;;10.34;100.00;100372.09;5107949;28;20119;-60
2020/12/22 02:14:34;;;;;;;49.80;4.90;;;;;;;10.38;100.00;100377.88;5089830;28;20542;-56
2020/12/22 02:17:01;;;;;;;43.00;5.13;;;;;;;10.40;100.00;100375.59;5090979;28;20059;-59
2020/12/22 02:19:28;;;;;;;42.65;4.82;;;;;;;10.38;100.00;100381.50;5110531;28;20040;-57
2020/12/22 02:21:55;;;;;;;42.97;4.72;;;;;;;10.39;100.00;100372.00;5110256;28;20056;-60
2020/12/22 02:24:22;;;;;;;43.25;4.40;;;;;;;10.38;100.00;100373.13;5091381;28;20071;-59
2020/12/22 02:26:49;;;;;;;40.03;4.35;;;;;;;10.38;100.00;100384.28;5090755;28;20521;-59
2020/12/22 02:29:16;;;;;;;45.40;4.72;;;;;;;10.42;100.00;100376.09;5109997;28;20048;-62
2020/12/22 02:31:43;;;;;;;39.28;4.30;;;;;;;10.42;100.00;100376.94;5114722;28;20524;-60
2020/12/22 02:34:10;;;;;;;36.95;4.65;;;;;;;10.42;100.00;100388.09;5100051;28;20141;-60
2020/12/22 02:36:37;;;;;;;35.42;3.92;;;;;;;10.42;100.00;100398.44;5093591;28;20087;-60
2020/12/22 02:39:05;;;;;;;36.08;4.40;;;;;;;10.44;100.00;100396.16;5105450;28;20079;-61
2020/12/22 02:41:32;;;;;;;40.15;4.07;;;;;;;10.47;100.00;100404.75;5114661;27;20044;-59
2020/12/22 02:43:59;;;;;;;41.90;4.20;;;;;;;10.46;100.00;100393.88;5103978;28;20055;-60
2020/12/22 02:46:26;;;;;;;45.72;5.05;;;;;;;10.46;100.00;100396.69;5094160;28;20052;-59
2020/12/22 02:48:52;;;;;;;40.40;4.50;;;;;;;10.45;100.00;100393.06;5101070;28;20043;-61
2020/12/22 02:51:19;;;;;;;38.80;4.25;;;;;;;10.44;100.00;100394.19;5114303;28;20043;-62
2020/12/22 02:53:46;;;;;;;42.17;5.00;;;;;;;10.47;100.00;100401.94;5108993;28;20044;-60
2020/12/22 02:56:13;;;;;;;42.45;4.53;;;;;;;10.46;100.00;100389.13;5094058;28;20402;-60
2020/12/22 02:58:40;;;;;;;42.33;4.93;;;;;;;10.47;100.00;100395.53;5096031;28;20473;-60
2020/12/22 03:01:07;;;;;;;49.97;5.72;;;;;;;10.45;100.00;100400.59;5114098;28;20498;-61
2020/12/22 03:03:34;;;;;;;52.65;4.85;;;;;;;10.47;100.00;100385.22;5113432;28;20138;-61
2020/12/22 03:06:00;;;;;;;49.35;6.10;;;;;;;10.48;100.00;100411.97;5093581;28;20521;-59
2020/12/22 03:08:27;;;;;;;44.92;5.28;;;;;;;10.47;100.00;100395.53;5093880;28;20048;-60
2020/12/22 03:10:54;;;;;;;45.05;4.68;;;;;;;10.48;100.00;100394.41;5111123;28;20121;-61
2020/12/22 03:13:21;;;;;;;55.13;6.10;;;;;;;10.47;100.00;100401.94;5114153;28;20139;-61
2020/12/22 03:15:48;;;;;;;46.92;4.72;;;;;;;10.45;100.00;100390.28;5097123;28;20052;-60
2020/12/22 03:18:18;;;;;;;47.28;5.28;;;;;;;10.46;100.00;100400.28;5092816;28;20040;-59
2020/12/22 03:20:45;;;;;;;61.13;6.43;;;;;;;10.46;100.00;100391.91;5107464;28;20493;-59
2020/12/22 03:23:12;;;;;;;53.15;6.28;;;;;;;10.45;100.00;100401.44;5113650;28;20506;-60
2020/12/22 03:25:38;;;;;;;50.22;6.97;;;;;;;10.47;100.00;100401.13;5100576;28;20471;-60
2020/12/22 03:28:06;;;;;;;40.72;5.15;;;;;;;10.45;100.00;100407.00;5093353;28;20108;-61
2020/12/22 03:30:33;;;;;;;50.83;5.88;;;;;;;10.44;100.00;100401.72;5102738;28;20450;-61
2020/12/22 03:33:00;;;;;;;44.38;5.05;;;;;;;10.45;100.00;100409.78;5112902;28;20526;-61
2020/12/22 03:35:27;;;;;;;47.22;5.43;;;;;;;10.46;100.00;100411.44;5105400;28;20092;-60
2020/12/22 03:37:53;;;;;;;40.97;5.65;;;;;;;10.47;100.00;100404.75;5093296;28;20048;-60
2020/12/22 03:40:20;;;;;;;59.35;6.85;;;;;;;10.47;100.00;100403.91;5096689;28;20127;-60
2020/12/22 03:42:47;;;;;;;49.78;5.72;;;;;;;10.47;100.00;100406.69;5113366;28;20109;-59
2020/12/22 03:45:16;;;;;;;53.78;6.60;;;;;;;10.49;100.00;100412.78;5111561;28;20055;-59
2020/12/22 03:47:44;;;;;;;50.53;6.45;;;;;;;10.49;100.00;100416.41;5112654;28;20044;-58
2020/12/22 03:50:21;;;;;;;46.55;4.78;;;;;;;10.49;100.00;100419.19;5110921;28;20047;-59
2020/12/22 03:52:47;;;;;;;56.78;6.60;;;;;;;10.53;100.00;100417.47;5092488;28;20034;-59
2020/12/22 03:55:14;;;;;;;57.85;5.75;;;;;;;10.57;100.00;100415.72;5092674;28;20048;-60
2020/12/22 03:57:41;;;;;;;46.15;5.00;;;;;;;10.58;100.00;100427.69;5112734;28;20047;-63
2020/12/22 04:00:09;;;;;;;42.55;5.50;;;;;;;10.57;100.00;100418.50;5111341;28;20101;-66
2020/12/22 04:02:35;;;;;;;54.00;6.25;;;;;;;10.58;100.00;100425.72;5109764;28;20061;-67
2020/12/22 04:05:04;;;;;;;47.72;5.18;;;;;;;10.58;100.00;100430.47;5093551;28;20119;-66
2020/12/22 04:07:31;;;;;;;42.78;4.93;;;;;;;10.61;100.00;100430.66;5108989;28;20042;-67
2020/12/22 04:09:57;;;;;;;44.53;4.78;;;;;;;10.61;100.00;100436.25;5113529;28;20075;-66
2020/12/22 04:12:24;;;;;;;59.50;6.05;;;;;;;10.61;100.00;100447.41;5099346;28;20048;-67
2020/12/22 04:14:51;;;;;;;41.25;4.35;;;;;;;10.58;100.00;100448.06;5092642;28;20105;-67
2020/12/22 04:17:18;;;;;;;49.13;6.07;;;;;;;10.60;100.00;100453.28;5104616;28;20042;-64
2020/12/22 04:19:45;;;;;;;47.03;5.55;;;;;;;10.54;100.00;100444.22;5113661;28;20122;-65
2020/12/22 04:22:12;;;;;;;48.17;5.32;;;;;;;10.53;100.00;100448.16;5107845;28;20097;-67
2020/12/22 04:24:39;;;;;;;38.47;5.00;;;;;;;10.53;100.00;100450.94;5106215;28;20132;-66
2020/12/22 04:27:06;;;;;;;50.78;5.47;;;;;;;10.51;100.00;100452.38;5110761;28;20054;-65
2020/12/22 04:29:33;;;;;;;48.78;4.68;;;;;;;10.50;100.00;100457.13;5103004;28;20052;-63
2020/12/22 04:32:00;;;;;;;46.75;5.10;;;;;;;10.50;100.00;100451.53;5111718;28;20209;-61
2020/12/22 04:34:27;;;;;;;48.92;5.18;;;;;;;10.53;100.00;100456.50;5101738;28;20092;-64
2020/12/22 04:36:54;;;;;;;51.67;5.43;;;;;;;10.51;100.00;100467.16;5111248;28;20119;-62
2020/12/22 04:39:22;;;;;;;41.67;4.63;;;;;;;10.50;100.00;100461.88;5101702;28;20044;-64
2020/12/22 04:41:49;;;;;;;54.47;5.50;;;;;;;10.45;100.00;100462.78;5112745;28;20043;-63
2020/12/22 04:44:16;;;;;;;50.65;6.88;;;;;;;10.49;100.00;100461.06;5092036;28;20035;-66
2020/12/22 04:46:49;;;;;;;40.47;5.28;;;;;;;10.49;100.00;100471.38;5092872;28;20047;-66
2020/12/22 04:49:20;;;;;;;41.03;6.07;;;;;;;10.49;100.00;100469.41;5104568;28;20051;-68
2020/12/22 04:51:49;;;;;;;51.97;5.45;;;;;;;10.47;100.00;100471.69;5092993;28;20051;-67
2020/12/22 04:54:32;;;;;;;38.45;5.13;;;;;;;10.50;100.00;100468.28;5112212;28;20063;-67
2020/12/22 04:57:00;;;;;;;46.00;5.57;;;;;;;10.50;100.00;100489.78;5112528;28;20043;-66
2020/12/22 04:59:28;;;;;;;49.33;5.30;;;;;;;10.51;100.00;100474.69;5100039;28;20044;-65
2020/12/22 05:01:56;;;;;;;45.67;5.40;;;;;;;10.51;100.00;100475.53;5112716;28;20051;-65
2020/12/22 05:04:23;;;;;;;40.08;5.05;;;;;;;10.48;100.00;100480.88;5095750;28;20048;-64
2020/12/22 05:06:50;;;;;;;49.50;5.47;;;;;;;10.45;100.00;100489.84;5092195;28;20119;-65
2020/12/22 05:09:17;;;;;;;47.33;5.82;;;;;;;10.48;100.00;100492.03;5105642;28;20039;-65
2020/12/22 05:11:44;;;;;;;51.42;6.05;;;;;;;10.46;100.00;100477.56;5112545;28;20478;-63
2020/12/22 05:14:13;;;;;;;51.88;6.63;;;;;;;10.45;100.00;100499.06;5100664;28;20052;-66
2020/12/22 05:16:39;;;;;;;46.90;5.47;;;;;;;10.43;100.00;100480.97;5092259;28;20131;-63
2020/12/22 05:19:06;;;;;;;41.70;5.03;;;;;;;10.44;100.00;100486.25;5100489;28;20478;-63
2020/12/22 05:21:36;;;;;;;46.47;5.63;;;;;;;10.41;100.00;100491.59;5112239;28;20101;-64
2020/12/22 05:24:03;;;;;;;39.25;5.95;;;;;;;10.40;100.00;100496.34;5109141;28;20100;-63
2020/12/22 05:26:32;;;;;;;39.60;4.72;;;;;;;10.43;100.00;100506.91;5102737;28;20067;-63
2020/12/22 05:29:09;;;;;;;42.05;5.88;;;;;;;10.42;100.00;100508.03;5110832;28;20130;-64
2020/12/22 05:31:41;;;;;;;45.72;5.82;;;;;;;10.42;100.00;100507.22;5101721;28;20398;-65
2020/12/22 05:34:10;;;;;;;41.75;5.55;;;;;;;10.43;100.00;100514.44;5108126;28;20067;-62
2020/12/22 05:36:39;;;;;;;47.63;5.55;;;;;;;10.45;100.00;100515.78;5101003;28;20058;-65
2020/12/22 05:39:08;;;;;;;46.83;5.22;;;;;;;10.50;100.00;100523.25;5108439;28;20187;-63
2020/12/22 05:41:35;;;;;;;38.50;4.90;;;;;;;10.53;100.00;100523.47;5103005;28;20118;-63
2020/12/22 05:44:03;;;;;;;38.58;5.75;;;;;;;10.54;100.00;100525.13;5092744;28;20130;-63
2020/12/22 05:46:33;;;;;;;32.80;5.07;;;;;;;10.58;100.00;100533.72;5100788;28;20066;-64
2020/12/22 05:49:01;;;;;;;35.80;5.10;;;;;;;10.61;99.97;100533.91;5112318;28;20414;-63
2020/12/22 05:51:37;;;;;;;45.35;5.75;;;;;;;10.64;99.91;100538.88;5111587;28;20044;-63
2020/12/22 05:54:06;;;;;;;37.92;5.55;;;;;;;10.65;99.57;100543.31;5111726;28;20079;-63
2020/12/22 05:56:33;;;;;;;46.35;6.05;;;;;;;10.62;99.41;100538.34;5091669;28;20039;-63
2020/12/22 05:59:00;;;;;;;36.95;5.65;;;;;;;10.58;99.18;100540.13;5091259;28;20101;-63
2020/12/22 06:01:30;;;;;;;36.00;5.03;;;;;;;10.62;99.17;100541.13;5108263;28;20052;-62
2020/12/22 06:03:58;;;;;;;42.55;5.07;;;;;;;10.63;99.10;100551.16;5115981;28;20050;-61
2020/12/22 06:06:27;;;;;;;42.83;5.55;;;;;;;10.60;98.69;100559.31;5099463;27;20052;-61
2020/12/22 06:08:54;;;;;;;37.70;5.03;;;;;;;10.61;98.94;100556.22;5095595;28;20119;-61
2020/12/22 06:11:21;;;;;;;45.92;5.72;;;;;;;10.62;98.86;100565.41;5108929;28;20046;-61
2020/12/22 06:13:49;;;;;;;39.83;5.15;;;;;;;10.59;98.92;100564.06;5115710;28;20046;-62
2020/12/22 06:16:18;;;;;;;41.22;5.15;;;;;;;10.56;99.10;100567.50;5103731;28;20048;-62
2020/12/22 06:18:46;;;;;;;41.67;4.90;;;;;;;10.56;99.56;100561.09;5095532;28;20062;-60
2020/12/22 06:21:16;;;;;;;41.30;5.45;;;;;;;10.52;99.64;100566.44;5104549;28;20043;-59
2020/12/22 06:23:45;;;;;;;35.92;5.00;;;;;;;10.51;99.72;100573.16;5115838;28;20044;-59
2020/12/22 06:26:13;;;;;;;42.35;4.80;;;;;;;10.49;99.85;100569.84;5106780;28;20044;-61
2020/12/22 06:28:40;;;;;;;54.80;6.25;;;;;;;10.53;99.95;100576.47;5094967;28;20553;-61
2020/12/22 06:31:16;;;;;;;48.22;5.40;;;;;;;10.53;100.00;100589.59;5100859;28;20414;-60
2020/12/22 06:33:43;;;;;;;38.03;4.60;;;;;;;10.54;100.00;100586.50;5115694;28;20068;-59
2020/12/22 06:36:13;;;;;;;43.15;5.15;;;;;;;10.59;100.00;100613.50;5109909;28;20090;-60
2020/12/22 06:38:53;;;;;;;44.83;5.57;;;;;;;10.61;99.97;100614.81;5095046;28;20044;-60
2020/12/22 06:41:46;;;;;;;36.95;4.20;;;;;;;10.64;99.92;100647.69;5099776;28;20043;-60
2020/12/22 06:44:18;;;;;;;43.97;4.93;;;;;;;10.63;99.87;100650.78;5115287;28;20043;-59
2020/12/22 06:46:46;;;;;;;29.63;3.55;;;;;;;10.56;99.60;100654.00;5115021;28;20043;-59
2020/12/22 06:49:14;;;;;;;30.65;3.47;;;;;;;10.54;99.27;100656.25;5114951;28;20079;-59
2020/12/22 06:51:42;;;;;;;24.25;2.78;;;;;;;10.48;98.97;100653.84;5109872;28;20044;-59
2020/12/22 06:54:31;;;;;;;24.67;3.17;;;;;;;10.41;98.81;100668.16;5093408;28;20134;-60
2020/12/22 06:56:58;;;;;;;28.65;3.35;;;;;;;10.30;98.82;100681.44;5099276;28;20044;-60
2020/12/22 06:59:50;;;;;;;28.08;3.47;;;;;;;10.26;98.55;100677.59;5114625;28;20130;-60
2020/12/22 07:02:30;;;;;;;27.57;3.30;;;;;;;10.18;98.58;100688.59;5107373;28;20132;-60
2020/12/22 07:04:58;;;;;;;31.40;3.70;;;;;;;10.12;98.67;100695.34;5093836;28;20040;-60
2020/12/22 07:07:25;;;;;;;27.42;3.33;;;;;;;10.08;98.56;100695.13;5100775;28;20127;-60
2020/12/22 07:10:05;;;;;;;31.23;3.47;;;;;;;10.02;98.55;100701.88;5113870;28;20571;-60
2020/12/22 07:12:32;;;;;;;21.17;2.80;;;;;;;9.94;98.52;100719.28;5108570;28;20118;-61
2020/12/22 07:14:59;;;;;;;29.30;3.40;;;;;;;9.88;98.32;100720.47;5092893;28;20139;-60
2020/12/22 07:17:26;;;;;;;23.15;3.10;;;;;;;9.81;98.28;100728.38;5097589;28;20062;-61
2020/12/22 07:19:55;;;;;;;27.05;3.33;;;;;;;9.71;98.17;100740.47;5114520;28;20436;-61
2020/12/22 07:22:34;;;;;;;19.63;3.00;;;;;;;9.60;97.96;100752.84;5110105;28;20052;-62
2020/12/22 07:25:04;;;;;;;21.67;3.08;;;;;;;9.54;98.12;100763.22;5093424;28;20035;-63
2020/12/22 07:27:31;;;;;;;22.80;3.05;;;;;;;9.50;98.30;100775.25;5095483;28;20043;-63
2020/12/22 07:29:58;;;;;;;22.85;3.13;;;;;;;9.47;98.37;100789.75;5110584;28;20551;-62
2020/12/22 07:32:25;;;;;;;25.55;3.28;;;;;;;9.44;98.53;100795.91;5113923;28;20074;-62
2020/12/22 07:34:52;;;;;;;28.15;3.88;;;;;;;9.42;98.70;100800.94;5093229;28;20139;-61
2020/12/22 07:37:19;;;;;;;17.55;2.67;;;;;;;9.39;98.79;100804.34;5094196;28;20134;-61
2020/12/22 07:39:46;;;;;;;23.85;2.85;;;;;;;9.37;98.74;100818.56;5110521;28;20046;-62
2020/12/22 07:42:14;;;;;;;28.23;3.38;;;;;;;9.36;98.87;100833.59;5114200;28;20077;-62
2020/12/22 07:44:43;;;;;;;28.58;3.13;;;;;;;9.34;98.89;100841.41;5097771;28;20066;-61
2020/12/22 07:47:11;;;;;;;19.95;2.75;;;;;;;9.35;98.83;100853.38;5092979;28;20055;-61
2020/12/22 07:49:39;;;;;;;19.95;3.05;;;;;;;9.32;98.92;100863.16;5107020;28;20036;-61
2020/12/22 07:52:14;;;;;;;22.83;3.58;;;;;;;9.29;98.81;100870.13;5113477;28;20039;-60
2020/12/22 07:54:41;;;;;;;18.35;2.63;;;;;;;9.27;98.96;100875.16;5100724;28;20040;-61
2020/12/22 07:57:10;;;;;;;24.58;3.80;;;;;;;9.26;98.88;100890.19;5093476;28;20127;-61
2020/12/22 07:59:38;;;;;;;17.15;2.30;;;;;;;9.26;99.01;100887.41;5102665;28;20043;-64
2020/12/22 08:02:04;;;;;;;21.92;3.20;;;;;;;9.25;98.90;100905.22;5113516;28;20051;-65
2020/12/22 08:04:31;;;;;;;19.95;2.60;;;;;;;9.25;98.85;100910.81;5104891;28;20040;-68
2020/12/22 08:06:59;;;;;;;14.60;2.65;;;;;;;9.26;98.93;100928.34;5103576;28;20134;-68
2020/12/22 08:09:28;;;;;;;19.88;2.40;;;;;;;9.25;98.78;100937.81;5112963;28;20063;-67
2020/12/22 08:11:58;;;;;;;15.05;3.00;;;;;;;9.21;98.78;100931.97;5103238;28;20094;-66
2020/12/22 08:14:26;;;;;;;19.23;2.67;;;;;;;9.21;98.86;100939.50;5096867;28;20405;-66
2020/12/22 08:16:56;;;;;;;21.67;3.55;;;;;;;9.21;98.74;100943.13;5113271;28;20465;-65
2020/12/22 08:19:24;;;;;;;28.35;3.70;;;;;;;9.19;98.63;100945.34;5110041;28;20079;-65
2020/12/22 08:21:55;;;;;;;20.92;3.38;;;;;;;9.19;98.67;100952.91;5092159;28;20050;-64
2020/12/22 08:24:23;;;;;;;23.13;4.17;;;;;;;9.16;98.59;100945.97;5094137;28;20127;-65
2020/12/22 08:26:51;;;;;;;21.40;3.38;;;;;;;9.15;98.35;100965.72;5112866;28;20712;-64
2020/12/22 08:29:18;;;;;;;17.83;2.30;;;;;;;9.15;98.57;100963.78;5113164;28;20050;-64
2020/12/22 08:31:46;;;;;;;21.73;2.92;;;;;;;9.14;98.38;100964.06;5092578;28;20044;-64
2020/12/22 08:34:16;;;;;;;18.65;2.45;;;;;;;9.13;98.54;100968.81;5092195;28;20117;-64
2020/12/22 08:36:45;;;;;;;20.25;2.30;;;;;;;9.16;98.46;100961.84;5110583;28;20064;-64
2020/12/22 08:39:17;;;;;;;13.50;2.05;;;;;;;9.15;98.45;100966.56;5111437;28;20043;-63
2020/12/22 08:41:45;;;;;;;15.23;2.10;;;;;;;9.18;98.48;100976.31;5095273;28;20075;-63
2020/12/22 08:44:13;;;;;;;17.20;2.35;;;;;;;9.21;98.60;100984.88;5091357;28;20517;-63
2020/12/22 08:46:40;;;;;;;17.27;2.25;;;;;;;9.25;98.58;100994.34;5097539;28;20151;-64
2020/12/22 08:49:15;;;;;;;25.25;2.42;;;;;;;9.26;98.31;101006.31;5092140;28;20131;-63
2020/12/22 08:51:45;;;;;;;14.38;2.58;;;;;;;9.24;98.29;101011.31;5106183;28;20113;-58
2020/12/22 08:54:12;;;;;;;13.32;1.85;;;;;;;9.23;98.01;101013.28;5112441;28;20043;-64
2020/12/22 08:56:40;;;;;;;10.75;1.80;;;;;;;9.21;97.88;101018.28;5099929;28;20115;-64
2020/12/22 08:59:08;;;;;;;13.85;1.83;;;;;;;9.20;97.73;101019.41;5092262;28;20127;-64
2020/12/22 09:01:40;;;;;;;11.27;1.40;;;;;;;9.21;97.98;101026.66;5102000;28;20054;-64
2020/12/22 09:04:07;;;;;;;15.20;2.00;;;;;;;9.21;97.86;101032.22;5112084;28;20142;-64
2020/12/22 09:06:37;;;;;;;15.50;1.98;;;;;;;9.23;97.81;101043.06;5103887;28;20135;-64
2020/12/22 09:09:11;;;;;;;18.70;2.53;;;;;;;9.23;97.75;101054.22;5092069;28;20044;-64
2020/12/22 09:11:39;;;;;;;14.70;2.10;;;;;;;9.22;97.67;101063.69;5099112;28;20043;-64
2020/12/22 09:14:09;;;;;;;14.50;1.80;;;;;;;9.19;97.52;101070.66;5112459;28;20131;-64
2020/12/22 09:16:52;;;;;;;10.77;2.00;;;;;;;9.17;97.56;101081.25;5105694;28;20487;-64
2020/12/22 09:19:21;;;;;;;18.27;1.90;;;;;;;9.15;97.33;101086.28;5092074;28;20036;-64
2020/12/22 09:21:57;;;;;;;14.75;2.30;;;;;;;9.16;97.48;101096.31;5097755;28;20062;-64
2020/12/22 09:24:24;;;;;;;9.98;1.95;;;;;;;9.16;97.39;101106.59;5111444;28;20043;-64
2020/12/22 09:26:53;;;;;;;13.50;1.67;;;;;;;9.16;97.25;101115.78;5106793;28;20123;-64
2020/12/22 09:29:19;;;;;;;15.55;2.17;;;;;;;9.18;97.25;101118.28;5091623;28;20135;-63
2020/12/22 09:31:46;;;;;;;11.98;1.45;;;;;;;9.18;97.26;101140.56;5093978;28;20133;-63
2020/12/22 09:34:13;;;;;;;16.15;2.20;;;;;;;9.18;97.13;101140.56;5112062;28;20134;-63
2020/12/22 09:36:40;;;;;;;11.75;1.70;;;;;;;9.18;96.97;101144.19;5110356;28;20138;-63
2020/12/22 09:39:08;;;;;;;10.95;1.60;;;;;;;9.17;97.03;101147.25;5109862;28;20039;-63
2020/12/22 09:41:41;;;;;;;18.17;2.10;;;;;;;9.15;96.94;101150.31;5111895;28;20043;-63
2020/12/22 09:44:08;;;;;;;15.77;2.10;;;;;;;9.15;96.98;101166.19;5091311;28;20048;-63
2020/12/22 09:46:35;;;;;;;13.70;2.38;;;;;;;9.12;96.68;101164.78;5090987;28;20148;-63
2020/12/22 09:49:02;;;;;;;10.30;2.10;;;;;;;9.09;96.62;101173.69;5108004;28;20047;-63
2020/12/22 09:51:29;;;;;;;17.48;2.10;;;;;;;9.06;96.48;101177.03;5111103;28;20042;-63
2020/12/22 09:54:14;;;;;;;10.10;1.75;;;;;;;9.03;96.38;101180.38;5093354;28;20047;-62
2020/12/22 09:56:41;;;;;;;13.77;1.98;;;;;;;9.03;96.36;101185.13;5091415;28;20504;-63
2020/12/22 09:59:08;;;;;;;16.85;2.30;;;;;;;9.03;96.21;101179.56;5105812;28;20076;-62
2020/12/22 10:01:35;;;;;;;12.55;2.88;;;;;;;9.02;96.08;101189.00;5111520;28;20408;-62
2020/12/22 10:04:02;;;;;;;11.80;2.30;;;;;;;9.02;96.07;101195.41;5098053;28;20071;-62
2020/12/22 10:06:29;;;;;;;10.35;2.15;;;;;;;9.04;96.08;101209.06;5106106;28;20443;-62
2020/12/22 10:08:56;;;;;;;12.35;2.47;;;;;;;9.04;96.08;101209.91;5109485;28;20036;-62
2020/12/22 10:11:25;;;;;;;16.15;2.55;;;;;;;9.04;95.77;101214.63;5097169;28;20445;-62
2020/12/22 10:13:52;;;;;;;7.55;2.08;;;;;;;9.05;95.79;101222.69;5099484;28;20116;-63
2020/12/22 10:16:21;;;;;;;13.65;2.58;;;;;;;9.04;95.76;101221.03;5111632;28;20086;-62
2020/12/22 10:18:48;;;;;;;10.90;2.05;;;;;;;9.04;95.76;101229.38;5104168;28;20044;-63
2020/12/22 10:21:17;;;;;;;8.90;2.28;;;;;;;9.04;95.40;101231.31;5090631;28;20138;-63
2020/12/22 10:23:46;;;;;;;18.40;3.15;;;;;;;9.06;95.58;101237.44;5095333;28;20122;-62
2020/12/22 10:26:15;;;;;;;12.93;2.63;;;;;;;9.06;95.43;101235.50;5111493;28;20048;-62
2020/12/22 10:28:44;;;;;;;9.77;2.90;;;;;;;9.06;95.19;101243.03;5107668;28;20115;-62
2020/12/22 10:31:12;;;;;;;14.57;2.35;;;;;;;9.04;95.13;101246.09;5091224;28;20570;-62
2020/12/22 10:33:39;;;;;;;10.63;2.28;;;;;;;9.03;95.05;101249.97;5090207;28;20461;-62
2020/12/22 10:36:07;;;;;;;15.82;2.22;;;;;;;9.02;94.91;101255.81;5111016;28;20143;-62
2020/12/22 10:38:46;;;;;;;15.05;2.67;;;;;;;8.99;94.85;101257.25;5110063;28;20031;-62
2020/12/22 10:41:13;;;;;;;18.02;2.83;;;;;;;9.00;94.72;101253.31;5089049;28;20410;-62
2020/12/22 10:43:40;;;;;;;14.63;1.95;;;;;;;9.01;94.63;101254.16;5091046;28;20495;-62
2020/12/22 10:46:08;;;;;;;12.65;1.95;;;;;;;9.03;94.51;101261.13;5109551;28;20498;-62
2020/12/22 10:48:34;;;;;;;12.77;2.00;;;;;;;9.05;94.52;101260.84;5112080;28;20498;-62
2020/12/22 10:51:01;;;;;;;10.88;1.75;;;;;;;9.06;94.42;101268.91;5097917;28;20495;-63
2020/12/22 10:53:28;;;;;;;16.45;1.92;;;;;;;9.07;94.34;101273.38;5094737;28;20469;-63
2020/12/22 10:55:55;;;;;;;10.85;1.48;;;;;;;9.10;94.36;101272.81;5107967;28;20036;-62
2020/12/22 10:58:22;;;;;;;12.77;2.15;;;;;;;9.12;94.27;101269.75;5114877;28;20070;-62
2020/12/22 11:00:49;;;;;;;10.18;1.75;;;;;;;9.15;94.09;101266.41;5112970;28;20460;-62
2020/12/22 11:03:19;;;;;;;7.25;1.55;;;;;;;9.15;94.01;101272.81;5097900;28;20036;-63
2020/12/22 11:08:34;;;;;;;11.68;1.92;;;;;;;9.17;94.12;101286.47;5096103;28;20472;-63
2020/12/22 11:11:01;;;;;;;13.95;2.00;;;;;;;9.21;94.12;101281.97;5093041;28;20087;-63
2020/12/22 11:13:28;;;;;;;15.63;2.15;;;;;;;9.22;94.04;101284.47;5094235;28;20051;-63
2020/12/22 11:15:58;;;;;;;12.88;1.67;;;;;;;9.21;93.95;101279.19;5102542;28;20475;-62
2020/12/22 11:18:26;;;;;;;14.90;1.83;;;;;;;9.22;93.92;101289.22;5114506;28;20043;-62
2020/12/22 11:20:52;;;;;;;17.80;2.13;;;;;;;9.23;93.89;101285.31;5107085;28;20063;-61
2020/12/22 11:23:19;;;;;;;18.50;2.67;;;;;;;9.24;93.77;101287.00;5093154;28;20097;-59
2020/12/22 11:25:46;;;;;;;14.20;2.15;;;;;;;9.25;93.64;101289.50;5097907;28;20051;-61